createdAt,value
2022-10-31T00:00:21.694Z,94198.75
2022-10-31T00:01:22.886Z,94206.84
2022-10-31T00:02:19.527Z,94201.88
2022-10-31T00:03:17.282Z,94172.75
2022-10-31T00:04:13.904Z,94212.50
2022-10-31T00:05:10.494Z,94203.69
2022-10-31T00:06:07.217Z,94212.72
2022-10-31T00:07:03.771Z,94213.78
2022-10-31T00:08:00.337Z,94210.19
2022-10-31T00:09:02.768Z,94211.94
2022-10-31T00:09:59.429Z,94210.13
2022-10-31T00:10:55.966Z,94215.28
2022-10-31T00:11:52.509Z,94209.25
2022-10-31T00:12:49.047Z,94204.88
2022-10-31T00:13:45.614Z,94177.25
2022-10-31T00:14:42.253Z,94208.75
2022-10-31T00:15:40.506Z,94208.41
2022-10-31T00:16:37.510Z,94210.41
2022-10-31T00:17:36.570Z,94205.06
2022-10-31T00:18:33.175Z,94165.97
2022-10-31T00:19:29.716Z,94206.03
2022-10-31T00:20:26.330Z,94209.47
2022-10-31T00:21:23.315Z,94205.84
2022-10-31T00:22:19.884Z,94201.69
2022-10-31T00:23:16.441Z,94204.63
2022-10-31T00:24:13.264Z,94204.56
2022-10-31T00:25:09.816Z,94201.38
2022-10-31T00:26:07.873Z,94208.06
2022-10-31T00:27:04.503Z,94207.06
2022-10-31T00:28:01.507Z,94204.69
2022-10-31T00:28:59.217Z,94205.59
2022-10-31T00:29:55.835Z,94214.25
2022-10-31T00:30:52.415Z,94205.00
2022-10-31T00:31:48.986Z,94204.06
2022-10-31T00:32:45.534Z,94169.16
2022-10-31T00:33:43.136Z,94208.25
2022-10-31T00:34:39.738Z,94197.81
2022-10-31T00:35:36.339Z,94206.78
2022-10-31T00:36:33.097Z,94192.31
2022-10-31T00:37:29.642Z,94206.50
2022-10-31T00:38:26.246Z,94204.53
2022-10-31T00:39:22.810Z,94197.34
2022-10-31T00:40:19.444Z,94155.19
2022-10-31T00:41:18.404Z,94205.38
2022-10-31T00:42:14.958Z,94206.81
2022-10-31T00:44:13.033Z,94200.81
2022-10-31T00:45:10.821Z,94202.56
2022-10-31T00:46:07.553Z,94194.94
2022-10-31T00:47:04.173Z,94202.16
2022-10-31T00:48:00.898Z,94201.59
2022-10-31T00:48:57.664Z,94200.72
2022-10-31T00:49:54.245Z,94197.59
2022-10-31T00:50:50.812Z,94199.03
2022-10-31T00:51:47.415Z,94197.03
2022-10-31T00:52:44.019Z,94195.56
2022-10-31T00:53:40.597Z,94201.13
2022-10-31T00:54:37.144Z,94196.13
2022-10-31T00:55:33.720Z,94195.13
2022-10-31T00:56:30.300Z,94194.69
2022-10-31T00:57:26.948Z,94172.78
2022-10-31T00:58:23.516Z,94196.03
2022-10-31T00:59:20.112Z,94190.69
2022-10-31T01:00:16.970Z,94193.38
2022-10-31T01:01:13.686Z,94190.78
2022-10-31T01:02:10.458Z,94196.59
2022-10-31T01:03:07.153Z,94198.16
2022-10-31T01:04:03.857Z,94198.81
2022-10-31T01:05:00.444Z,94203.56
2022-10-31T01:06:02.269Z,94199.47
2022-10-31T01:06:58.948Z,94199.81
2022-10-31T01:07:55.538Z,94202.56
2022-10-31T01:08:52.097Z,94201.16
2022-10-31T01:09:48.710Z,94205.59
2022-10-31T01:10:45.396Z,94206.63
2022-10-31T01:11:41.991Z,94205.06
2022-10-31T01:12:39.197Z,94204.03
2022-10-31T01:13:36.700Z,94175.75
2022-10-31T01:14:33.265Z,94201.38
2022-10-31T01:15:29.825Z,94208.59
2022-10-31T01:16:27.882Z,94211.13
2022-10-31T01:17:24.683Z,94210.94
2022-10-31T01:18:21.250Z,94213.38
2022-10-31T01:19:17.877Z,94215.50
2022-10-31T01:20:16.180Z,94206.56
2022-10-31T01:21:19.941Z,94213.56
2022-10-31T01:22:16.499Z,94216.69
2022-10-31T01:23:13.055Z,94222.03
2022-10-31T01:24:10.011Z,94216.38
2022-10-31T01:25:08.075Z,94218.50
2022-10-31T01:26:20.618Z,94214.34
2022-10-31T01:27:17.196Z,94178.91
2022-10-31T01:28:13.781Z,94217.69
2022-10-31T01:29:10.460Z,94175.00
2022-10-31T01:30:07.513Z,94204.34
2022-10-31T01:31:07.192Z,94204.88
2022-10-31T01:32:03.911Z,94211.78
2022-10-31T01:33:00.784Z,94211.56
2022-10-31T01:33:58.136Z,94158.22
2022-10-31T01:34:54.704Z,94220.16
2022-10-31T01:35:51.324Z,94215.34
2022-10-31T01:36:52.139Z,94213.91
2022-10-31T01:37:48.900Z,94174.78
2022-10-31T01:38:47.541Z,94212.34
2022-10-31T01:39:44.208Z,94210.00
2022-10-31T01:40:40.757Z,94206.44
2022-10-31T01:41:40.134Z,94143.31
2022-10-31T01:42:36.718Z,94205.41
2022-10-31T01:43:47.084Z,94205.41
2022-10-31T01:44:43.689Z,94212.63
2022-10-31T01:45:41.241Z,94211.38
2022-10-31T01:46:52.680Z,94212.69
2022-10-31T01:47:50.545Z,94187.66
2022-10-31T01:48:47.902Z,94217.31
2022-10-31T01:49:50.068Z,94211.22
2022-10-31T01:50:49.527Z,94214.88
2022-10-31T01:51:51.262Z,94214.69
2022-10-31T01:52:50.458Z,94213.44
2022-10-31T01:53:48.030Z,94210.00
2022-10-31T01:54:49.353Z,94208.44
2022-10-31T01:55:47.564Z,94196.81
2022-10-31T01:56:49.133Z,94207.66
2022-10-31T01:57:51.364Z,94216.13
2022-10-31T01:58:48.169Z,94157.25
2022-10-31T01:59:50.415Z,94215.59
2022-10-31T02:00:52.193Z,94159.66
2022-10-31T02:01:51.967Z,94217.28
2022-10-31T02:02:51.253Z,94212.63
2022-10-31T02:03:48.789Z,94211.59
2022-10-31T02:04:46.977Z,94227.00
2022-10-31T02:05:44.372Z,94207.19
2022-10-31T02:06:52.317Z,94219.97
2022-10-31T02:07:51.702Z,94217.00
2022-10-31T02:08:48.487Z,94177.34
2022-10-31T02:09:47.079Z,94218.78
2022-10-31T02:10:45.134Z,94194.44
2022-10-31T02:11:43.309Z,94216.31
2022-10-31T02:12:41.702Z,94217.25
2022-10-31T02:13:38.714Z,94220.84
2022-10-31T02:14:37.251Z,94215.28
2022-10-31T02:15:34.361Z,94215.13
2022-10-31T02:16:30.968Z,94222.38
2022-10-31T02:17:27.710Z,94206.09
2022-10-31T02:18:28.681Z,94214.56
2022-10-31T02:19:34.479Z,94222.03
2022-10-31T02:20:38.678Z,94205.81
2022-10-31T02:21:35.228Z,94221.63
2022-10-31T02:22:49.679Z,94223.56
2022-10-31T02:24:22.526Z,94225.78
2022-10-31T02:25:22.051Z,94229.38
2022-10-31T02:26:58.581Z,94230.59
2022-10-31T02:28:08.428Z,94234.34
2022-10-31T02:29:38.545Z,94229.34
2022-10-31T02:31:02.961Z,94232.38
2022-10-31T02:32:06.878Z,94215.50
2022-10-31T02:33:20.839Z,94237.06
2022-10-31T02:34:27.263Z,94226.19
2022-10-31T02:35:52.852Z,94234.28
2022-10-31T02:37:01.258Z,94227.91
2022-10-31T02:37:57.798Z,94230.31
2022-10-31T02:39:27.313Z,94230.59
2022-10-31T02:40:28.350Z,94236.75
2022-10-31T02:41:42.297Z,94230.06
2022-10-31T02:43:12.371Z,94199.63
2022-10-31T02:44:29.304Z,94238.59
2022-10-31T02:45:40.192Z,94243.75
2022-10-31T02:46:49.667Z,94242.97
2022-10-31T02:47:49.976Z,94239.06
2022-10-31T02:48:49.391Z,94242.75
2022-10-31T02:49:48.987Z,94252.72
2022-10-31T02:50:54.448Z,94247.16
2022-10-31T02:51:51.725Z,94247.25
2022-10-31T02:52:53.013Z,94184.41
2022-10-31T02:53:49.564Z,94237.59
2022-10-31T02:54:47.797Z,94245.69
2022-10-31T02:55:52.569Z,94256.94
2022-10-31T02:56:52.202Z,94257.56
2022-10-31T02:57:49.684Z,94254.03
2022-10-31T02:58:52.048Z,94253.88
2022-10-31T02:59:52.123Z,94239.53
2022-10-31T03:01:26.416Z,94257.31
2022-10-31T03:02:38.500Z,94257.59
2022-10-31T03:03:38.520Z,94253.31
2022-10-31T03:04:50.242Z,94261.66
2022-10-31T03:06:01.580Z,94224.25
2022-10-31T03:07:17.001Z,94252.16
2022-10-31T03:08:21.554Z,94255.16
2022-10-31T03:09:39.419Z,94252.94
2022-10-31T03:11:07.070Z,94253.22
2022-10-31T03:12:20.498Z,94244.56
2022-10-31T03:13:31.254Z,94214.97
2022-10-31T03:15:06.596Z,94174.59
2022-10-31T03:16:21.928Z,94208.44
2022-10-31T03:18:00.038Z,94253.50
2022-10-31T03:19:20.859Z,94236.81
2022-10-31T03:20:23.737Z,94253.09
2022-10-31T03:22:13.755Z,94259.34
2022-10-31T03:23:14.982Z,94257.66
2022-10-31T03:24:13.557Z,94251.16
2022-10-31T03:25:10.780Z,94258.63
2022-10-31T03:26:10.100Z,94259.78
2022-10-31T03:27:11.010Z,94262.84
2022-10-31T03:28:11.087Z,94257.88
2022-10-31T03:29:10.907Z,94252.25
2022-10-31T03:30:08.939Z,94251.66
2022-10-31T03:31:07.612Z,94264.72
2022-10-31T03:32:10.848Z,94263.16
2022-10-31T03:33:12.663Z,94228.69
2022-10-31T03:34:11.032Z,94260.22
2022-10-31T03:35:10.864Z,94261.22
2022-10-31T03:36:11.116Z,94262.09
2022-10-31T03:37:11.054Z,94269.13
2022-10-31T03:38:08.254Z,94242.47
2022-10-31T03:39:09.209Z,94263.16
2022-10-31T03:40:08.996Z,94264.25
2022-10-31T03:41:08.767Z,94257.84
2022-10-31T03:42:17.523Z,94235.56
2022-10-31T03:43:20.127Z,94256.97
2022-10-31T03:44:20.515Z,94264.41
2022-10-31T03:45:25.873Z,94252.78
2022-10-31T03:46:22.994Z,94248.28
2022-10-31T03:47:19.607Z,94270.50
2022-10-31T03:48:19.415Z,94269.13
2022-10-31T03:49:17.263Z,94268.41
2022-10-31T03:50:16.226Z,94251.63
2022-10-31T03:51:36.919Z,94276.22
2022-10-31T03:52:51.520Z,94279.31
2022-10-31T03:54:08.288Z,94278.75
2022-10-31T03:55:46.414Z,94282.56
2022-10-31T03:57:00.659Z,94282.44
2022-10-31T03:58:12.127Z,94285.16
2022-10-31T03:59:27.685Z,94286.25
2022-10-31T04:00:27.599Z,94287.97
2022-10-31T04:01:27.280Z,94289.34
2022-10-31T04:02:29.886Z,94289.66
2022-10-31T04:03:31.105Z,94288.63
2022-10-31T04:04:29.634Z,94287.41
2022-10-31T04:05:27.010Z,94265.50
2022-10-31T04:06:25.789Z,94256.28
2022-10-31T04:07:26.554Z,94236.94
2022-10-31T04:08:27.788Z,94284.75
2022-10-31T04:09:26.760Z,94281.59
2022-10-31T04:10:30.201Z,94283.34
2022-10-31T04:11:34.313Z,94292.31
2022-10-31T04:12:33.606Z,94295.09
2022-10-31T04:13:34.859Z,94281.81
2022-10-31T04:14:33.876Z,94291.34
2022-10-31T04:15:33.522Z,94291.53
2022-10-31T04:16:30.273Z,94270.06
2022-10-31T04:17:32.733Z,94262.66
2022-10-31T04:18:29.547Z,94234.69
2022-10-31T04:19:26.135Z,94291.09
2022-10-31T04:20:40.900Z,94290.97
2022-10-31T04:21:37.520Z,94294.41
2022-10-31T04:22:34.205Z,94296.22
2022-10-31T04:23:31.609Z,94290.91
2022-10-31T04:24:28.180Z,94253.19
2022-10-31T04:25:24.757Z,94249.56
2022-10-31T04:26:21.333Z,94294.78
2022-10-31T04:27:17.929Z,94305.28
2022-10-31T04:28:14.556Z,94297.44
2022-10-31T04:29:11.126Z,94296.19
2022-10-31T04:30:08.296Z,94299.13
2022-10-31T04:31:05.096Z,94295.38
2022-10-31T04:32:01.683Z,94240.19
2022-10-31T04:32:58.611Z,94303.72
2022-10-31T04:33:55.449Z,94271.34
2022-10-31T04:34:52.036Z,94304.94
2022-10-31T04:35:48.754Z,94261.78
2022-10-31T04:36:45.313Z,94295.25
2022-10-31T04:37:41.972Z,94297.78
2022-10-31T04:38:38.566Z,94299.28
2022-10-31T04:39:35.166Z,94294.03
2022-10-31T04:40:31.807Z,94296.56
2022-10-31T04:41:28.520Z,94288.69
2022-10-31T04:42:25.096Z,94302.06
2022-10-31T04:43:21.860Z,94274.94
2022-10-31T04:44:18.458Z,94296.22
2022-10-31T04:45:18.378Z,94293.44
2022-10-31T04:46:17.769Z,94300.41
2022-10-31T04:47:14.336Z,94252.09
2022-10-31T04:48:10.910Z,94289.00
2022-10-31T04:49:07.530Z,94303.31
2022-10-31T04:50:04.849Z,94283.13
2022-10-31T04:51:02.363Z,94303.59
2022-10-31T04:51:58.903Z,94305.00
2022-10-31T04:52:55.505Z,94274.34
2022-10-31T04:53:52.112Z,94304.66
2022-10-31T04:54:48.662Z,94306.84
2022-10-31T04:55:45.201Z,94310.81
2022-10-31T04:56:41.776Z,94281.78
2022-10-31T04:57:42.928Z,94314.41
2022-10-31T04:58:39.520Z,94313.94
2022-10-31T04:59:36.120Z,94317.13
2022-10-31T05:00:32.816Z,94319.63
2022-10-31T05:01:29.503Z,94306.81
2022-10-31T05:02:26.235Z,94317.31
2022-10-31T05:03:23.566Z,94316.69
2022-10-31T05:04:20.149Z,94319.34
2022-10-31T05:05:22.345Z,94282.78
2022-10-31T05:06:18.897Z,94318.78
2022-10-31T05:07:15.510Z,94322.53
2022-10-31T05:08:12.086Z,94326.69
2022-10-31T05:09:08.632Z,94322.19
2022-10-31T05:10:05.628Z,94302.56
2022-10-31T05:11:04.471Z,94329.16
2022-10-31T05:12:01.571Z,94331.94
2022-10-31T05:13:01.502Z,94327.72
2022-10-31T05:13:58.407Z,94327.22
2022-10-31T05:14:54.970Z,94328.63
2022-10-31T05:15:51.557Z,94333.28
2022-10-31T05:16:48.352Z,94331.91
2022-10-31T05:17:45.367Z,94336.97
2022-10-31T05:18:41.901Z,94331.63
2022-10-31T05:19:38.433Z,94333.03
2022-10-31T05:20:34.969Z,94331.47
2022-10-31T05:21:31.537Z,94309.41
2022-10-31T05:22:28.142Z,94330.78
2022-10-31T05:23:24.721Z,94330.66
2022-10-31T05:24:22.756Z,94337.78
2022-10-31T05:25:20.782Z,94338.09
2022-10-31T05:26:17.448Z,94338.75
2022-10-31T05:27:14.113Z,94335.06
2022-10-31T05:28:10.677Z,94343.47
2022-10-31T05:29:07.319Z,94334.69
2022-10-31T05:30:04.252Z,94341.88
2022-10-31T05:31:00.813Z,94341.94
2022-10-31T05:31:57.405Z,94340.19
2022-10-31T05:32:54.152Z,94330.19
2022-10-31T05:33:50.770Z,94344.25
2022-10-31T05:34:47.338Z,94340.88
2022-10-31T05:35:43.914Z,94345.59
2022-10-31T05:36:40.479Z,94342.34
2022-10-31T05:37:37.156Z,94345.19
2022-10-31T05:38:33.754Z,94345.00
2022-10-31T05:39:30.313Z,94345.59
2022-10-31T05:40:28.482Z,94342.06
2022-10-31T05:41:25.204Z,94341.41
2022-10-31T05:42:21.778Z,94342.28
2022-10-31T05:43:18.361Z,94340.63
2022-10-31T05:44:14.933Z,94337.34
2022-10-31T05:45:14.204Z,94351.06
2022-10-31T05:46:10.787Z,94260.22
2022-10-31T05:47:07.455Z,94343.88
2022-10-31T05:48:04.969Z,94353.44
2022-10-31T05:49:02.976Z,94348.16
2022-10-31T05:49:59.759Z,94357.25
2022-10-31T05:50:56.308Z,94360.47
2022-10-31T05:51:52.937Z,94351.50
2022-10-31T05:52:59.443Z,94358.75
2022-10-31T05:53:56.086Z,94362.72
2022-10-31T05:54:52.633Z,94349.19
2022-10-31T05:55:49.270Z,94328.00
2022-10-31T05:56:45.841Z,94353.28
2022-10-31T05:57:42.400Z,94361.25
2022-10-31T05:58:39.045Z,94361.31
2022-10-31T05:59:35.728Z,94344.19
2022-10-31T06:00:32.964Z,94358.91
2022-10-31T06:01:29.580Z,94365.28
2022-10-31T06:02:27.753Z,94355.59
2022-10-31T06:03:24.330Z,94291.91
2022-10-31T06:04:20.943Z,94365.56
2022-10-31T06:05:17.623Z,94341.81
2022-10-31T06:06:14.170Z,94365.34
2022-10-31T06:07:10.717Z,94360.41
2022-10-31T06:08:07.344Z,94361.75
2022-10-31T06:09:04.020Z,94362.00
2022-10-31T06:10:00.832Z,94369.00
2022-10-31T06:10:57.418Z,94365.00
2022-10-31T06:11:54.022Z,94361.56
2022-10-31T06:12:50.727Z,94370.13
2022-10-31T06:13:47.370Z,94352.75
2022-10-31T06:14:43.952Z,94373.13
2022-10-31T06:15:41.981Z,94371.47
2022-10-31T06:16:38.583Z,94361.66
2022-10-31T06:17:36.247Z,94379.69
2022-10-31T06:18:32.837Z,94347.88
2022-10-31T06:19:29.413Z,94376.78
2022-10-31T06:20:26.110Z,94375.78
2022-10-31T06:21:22.655Z,94380.09
2022-10-31T06:22:19.219Z,94366.75
2022-10-31T06:23:15.789Z,94290.91
2022-10-31T06:24:12.364Z,94383.47
2022-10-31T06:25:09.090Z,94385.22
2022-10-31T06:26:05.736Z,94382.84
2022-10-31T06:27:02.331Z,94382.75
2022-10-31T06:27:58.936Z,94387.59
2022-10-31T06:28:56.876Z,94352.25
2022-10-31T06:29:56.574Z,94335.97
2022-10-31T06:30:53.215Z,94391.84
2022-10-31T06:31:52.672Z,94389.41
2022-10-31T06:32:50.757Z,94357.97
2022-10-31T06:33:47.451Z,94389.75
2022-10-31T06:34:44.510Z,94389.63
2022-10-31T06:35:46.742Z,94390.97
2022-10-31T06:36:43.378Z,94389.06
2022-10-31T06:37:40.229Z,94396.16
2022-10-31T06:38:37.276Z,94392.69
2022-10-31T06:39:34.293Z,94395.47
2022-10-31T06:40:30.864Z,94385.81
2022-10-31T06:41:27.573Z,94387.91
2022-10-31T06:42:24.273Z,94386.34
2022-10-31T06:43:21.813Z,94391.69
2022-10-31T06:44:18.366Z,94385.84
2022-10-31T06:45:14.929Z,94398.31
2022-10-31T06:46:11.471Z,94398.28
2022-10-31T06:47:08.087Z,94300.19
2022-10-31T06:48:16.789Z,94388.56
2022-10-31T06:49:14.645Z,94374.91
2022-10-31T06:50:11.236Z,94408.50
2022-10-31T06:51:07.889Z,94396.91
2022-10-31T06:52:04.773Z,94385.59
2022-10-31T06:53:01.443Z,94399.78
2022-10-31T06:53:58.023Z,94401.88
2022-10-31T06:54:54.671Z,94410.34
2022-10-31T06:55:51.211Z,94408.44
2022-10-31T06:56:48.431Z,94399.69
2022-10-31T06:58:00.244Z,94400.31
2022-10-31T06:58:59.599Z,94404.94
2022-10-31T06:59:56.146Z,94414.59
2022-10-31T07:00:52.746Z,94417.91
2022-10-31T07:01:49.476Z,94416.75
2022-10-31T07:02:57.076Z,94412.16
2022-10-31T07:03:53.702Z,94410.34
2022-10-31T07:04:50.302Z,94418.47
2022-10-31T07:05:47.067Z,94389.00
2022-10-31T07:06:45.978Z,94412.88
2022-10-31T07:07:46.040Z,94414.50
2022-10-31T07:08:42.687Z,94403.78
2022-10-31T07:09:39.400Z,94407.25
2022-10-31T07:10:40.357Z,94359.34
2022-10-31T07:11:37.610Z,94408.09
2022-10-31T07:12:34.169Z,94403.97
2022-10-31T07:13:30.801Z,94382.34
2022-10-31T07:14:27.355Z,94408.81
2022-10-31T07:15:25.147Z,94406.28
2022-10-31T07:16:21.741Z,94405.25
2022-10-31T07:17:18.348Z,94402.53
2022-10-31T07:18:15.030Z,94391.16
2022-10-31T07:19:11.669Z,94403.72
2022-10-31T07:20:08.976Z,94400.81
2022-10-31T07:21:06.028Z,94400.25
2022-10-31T07:22:02.678Z,94401.28
2022-10-31T07:22:59.885Z,94382.28
2022-10-31T07:23:56.842Z,94406.66
2022-10-31T07:24:53.512Z,94394.63
2022-10-31T07:25:55.200Z,94403.50
2022-10-31T07:26:51.869Z,94407.03
2022-10-31T07:27:48.567Z,94407.22
2022-10-31T07:28:47.810Z,94363.66
2022-10-31T07:29:44.356Z,94396.13
2022-10-31T07:30:41.033Z,94397.09
2022-10-31T07:31:37.739Z,94370.06
2022-10-31T07:32:50.916Z,94392.41
2022-10-31T07:33:47.810Z,94392.34
2022-10-31T07:34:47.393Z,94390.59
2022-10-31T07:35:44.484Z,94388.53
2022-10-31T07:36:41.054Z,94355.06
2022-10-31T07:37:37.813Z,94368.88
2022-10-31T07:38:34.447Z,94393.13
2022-10-31T07:39:31.032Z,94389.81
2022-10-31T07:40:27.734Z,94389.16
2022-10-31T07:41:24.348Z,94389.47
2022-10-31T07:42:20.918Z,94393.75
2022-10-31T07:43:17.487Z,94395.59
2022-10-31T07:44:14.059Z,94394.38
2022-10-31T07:45:16.434Z,94392.34
2022-10-31T07:46:13.088Z,94395.47
2022-10-31T07:47:09.639Z,94356.75
2022-10-31T07:48:06.455Z,94394.59
2022-10-31T07:49:03.261Z,94394.97
2022-10-31T07:49:59.811Z,94400.25
2022-10-31T07:50:56.581Z,94396.16
2022-10-31T07:51:53.124Z,94398.69
2022-10-31T07:53:09.208Z,94399.06
2022-10-31T07:54:05.808Z,94359.31
2022-10-31T07:55:02.974Z,94401.91
2022-10-31T07:55:59.546Z,94372.25
2022-10-31T07:56:56.178Z,94398.50
2022-10-31T07:58:04.563Z,94394.94
2022-10-31T07:59:01.135Z,94401.53
2022-10-31T07:59:57.784Z,94394.09
2022-10-31T08:00:54.482Z,94395.88
2022-10-31T08:01:51.181Z,94401.38
2022-10-31T08:02:47.751Z,94391.28
2022-10-31T08:03:44.339Z,94392.22
2022-10-31T08:04:40.918Z,94394.38
2022-10-31T08:05:38.336Z,94394.03
2022-10-31T08:06:35.418Z,94395.09
2022-10-31T08:07:37.677Z,94345.03
2022-10-31T08:08:37.466Z,94390.31
2022-10-31T08:09:35.026Z,94394.44
2022-10-31T08:10:32.038Z,94395.13
2022-10-31T08:11:28.588Z,94390.78
2022-10-31T08:12:25.660Z,94397.31
2022-10-31T08:13:22.986Z,94394.31
2022-10-31T08:14:19.581Z,94387.41
2022-10-31T08:15:16.313Z,94392.13
2022-10-31T08:16:12.889Z,94395.97
2022-10-31T08:17:09.489Z,94392.34
2022-10-31T08:18:07.472Z,94396.06
2022-10-31T08:19:04.085Z,94389.63
2022-10-31T08:20:00.690Z,94393.84
2022-10-31T08:20:57.367Z,94340.41
2022-10-31T08:21:56.072Z,94390.59
2022-10-31T08:23:04.074Z,94391.66
2022-10-31T08:24:00.623Z,94390.44
2022-10-31T08:24:57.484Z,94391.94
2022-10-31T08:25:54.132Z,94375.44
2022-10-31T08:26:51.158Z,94382.44
2022-10-31T08:27:52.627Z,94392.69
2022-10-31T08:28:50.860Z,94392.81
2022-10-31T08:29:47.521Z,94389.16
2022-10-31T08:30:44.259Z,94364.31
2022-10-31T08:31:43.000Z,94363.69
2022-10-31T08:32:39.772Z,94391.34
2022-10-31T08:33:36.647Z,94381.91
2022-10-31T08:34:33.313Z,94390.97
2022-10-31T08:35:29.970Z,94388.59
2022-10-31T08:36:26.546Z,94394.44
2022-10-31T08:37:23.109Z,94389.31
2022-10-31T08:38:19.689Z,94397.44
2022-10-31T08:39:16.283Z,94392.75
2022-10-31T08:40:14.106Z,94393.47
2022-10-31T08:41:10.662Z,94388.13
2022-10-31T08:42:07.345Z,94388.50
2022-10-31T08:43:06.562Z,94387.28
2022-10-31T08:44:03.124Z,94386.34
2022-10-31T08:44:59.701Z,94390.72
2022-10-31T08:45:56.300Z,94390.19
2022-10-31T08:46:52.900Z,94397.53
2022-10-31T08:47:49.541Z,94390.47
2022-10-31T08:48:49.548Z,94389.72
2022-10-31T08:49:46.428Z,94369.59
2022-10-31T08:50:44.683Z,94400.25
2022-10-31T08:51:41.341Z,94398.16
2022-10-31T08:53:03.020Z,94394.97
2022-10-31T08:53:54.629Z,94366.00
2022-10-31T08:54:51.239Z,94395.47
2022-10-31T08:55:48.237Z,94372.69
2022-10-31T08:56:44.801Z,94391.41
2022-10-31T08:57:41.527Z,94372.63
2022-10-31T08:58:40.424Z,94392.50
2022-10-31T08:59:37.206Z,94355.41
2022-10-31T09:00:35.797Z,94391.69
2022-10-31T09:01:35.546Z,94392.91
2022-10-31T09:02:32.205Z,94391.88
2022-10-31T09:03:31.580Z,94390.81
2022-10-31T09:04:28.176Z,94402.19
2022-10-31T09:05:25.660Z,94396.00
2022-10-31T09:06:22.397Z,94399.25
2022-10-31T09:07:21.266Z,94387.50
2022-10-31T09:08:18.285Z,94392.59
2022-10-31T09:09:14.849Z,94374.53
2022-10-31T09:10:11.481Z,94398.28
2022-10-31T09:11:08.292Z,94395.91
2022-10-31T09:12:05.136Z,94409.13
2022-10-31T09:13:11.990Z,94358.78
2022-10-31T09:14:08.632Z,94405.97
2022-10-31T09:15:07.492Z,94389.53
2022-10-31T09:16:04.417Z,94399.13
2022-10-31T09:17:01.016Z,94400.84
2022-10-31T09:17:57.861Z,94394.59
2022-10-31T09:18:54.592Z,94400.75
2022-10-31T09:19:51.157Z,94393.38
2022-10-31T09:20:49.474Z,94373.31
2022-10-31T09:21:46.141Z,94399.41
2022-10-31T09:22:42.767Z,94400.75
2022-10-31T09:23:39.455Z,94394.72
2022-10-31T09:24:36.091Z,94399.09
2022-10-31T09:25:34.206Z,94402.06
2022-10-31T09:26:31.654Z,94403.59
2022-10-31T09:27:28.258Z,94404.84
2022-10-31T09:28:25.395Z,94408.75
2022-10-31T09:29:22.003Z,94413.34
2022-10-31T09:30:18.578Z,94384.00
2022-10-31T09:31:15.252Z,94354.91
2022-10-31T09:32:11.875Z,94401.84
2022-10-31T09:33:12.938Z,94400.50
2022-10-31T09:34:09.525Z,94367.50
2022-10-31T09:35:06.522Z,94394.22
2022-10-31T09:36:03.133Z,94396.94
2022-10-31T09:36:59.692Z,94403.03
2022-10-31T09:38:01.042Z,94371.50
2022-10-31T09:38:57.945Z,94403.66
2022-10-31T09:39:54.550Z,94400.88
2022-10-31T09:41:19.500Z,94388.13
2022-10-31T09:42:25.093Z,94395.44
2022-10-31T09:43:30.313Z,94394.38
2022-10-31T09:44:45.195Z,94397.53
2022-10-31T09:46:15.330Z,94389.03
2022-10-31T09:47:37.920Z,94386.94
2022-10-31T09:49:00.337Z,94387.34
2022-10-31T09:50:13.686Z,94392.00
2022-10-31T09:51:33.938Z,94394.09
2022-10-31T09:52:37.901Z,94386.69
2022-10-31T09:53:37.387Z,94384.00
2022-10-31T09:54:41.902Z,94383.63
2022-10-31T09:55:42.621Z,94385.16
2022-10-31T09:56:39.672Z,94380.50
2022-10-31T09:57:37.992Z,94387.03
2022-10-31T09:58:41.693Z,94377.25
2022-10-31T09:59:40.950Z,94391.69
2022-10-31T10:00:37.656Z,94354.09
2022-10-31T10:01:39.074Z,94371.59
2022-10-31T10:02:44.062Z,94371.19
2022-10-31T10:03:45.250Z,94380.91
2022-10-31T10:04:59.403Z,94374.75
2022-10-31T10:06:08.060Z,94373.13
2022-10-31T10:07:23.158Z,94342.59
2022-10-31T10:08:22.167Z,94372.00
2022-10-31T10:09:23.265Z,94367.75
2022-10-31T10:10:58.128Z,94372.00
2022-10-31T10:12:32.639Z,94375.09
2022-10-31T10:13:57.310Z,94373.56
2022-10-31T10:15:05.826Z,94367.72
2022-10-31T10:16:08.497Z,94363.44
2022-10-31T10:17:23.191Z,94368.13
2022-10-31T10:18:35.438Z,94368.53
2022-10-31T10:20:02.510Z,94363.91
2022-10-31T10:21:05.118Z,94366.53
2022-10-31T10:22:20.370Z,94359.25
2022-10-31T10:23:23.104Z,94361.19
2022-10-31T10:24:34.244Z,94360.38
2022-10-31T10:25:41.605Z,94356.84
2022-10-31T10:26:43.664Z,94357.59
2022-10-31T10:27:53.564Z,94358.38
2022-10-31T10:28:58.611Z,94355.19
2022-10-31T10:30:13.970Z,94347.81
2022-10-31T10:31:17.442Z,94352.25
2022-10-31T10:33:00.116Z,94347.47
2022-10-31T10:33:59.682Z,94352.66
2022-10-31T10:35:08.490Z,94346.88
2022-10-31T10:36:09.874Z,94351.88
2022-10-31T10:37:32.552Z,94353.75
2022-10-31T10:38:53.934Z,94344.50
2022-10-31T10:39:56.716Z,94341.03
2022-10-31T10:40:54.539Z,94346.47
2022-10-31T10:42:10.474Z,94345.69
2022-10-31T10:43:25.707Z,94345.31
2022-10-31T10:44:22.274Z,94335.66
2022-10-31T10:45:39.471Z,94339.09
2022-10-31T10:47:03.603Z,94338.72
2022-10-31T10:48:43.808Z,94337.13
2022-10-31T10:49:44.534Z,94340.25
2022-10-31T10:50:48.266Z,94322.88
2022-10-31T10:52:07.081Z,94326.72
2022-10-31T10:53:22.288Z,94325.38
2022-10-31T10:55:04.349Z,94330.72
2022-10-31T10:56:18.736Z,94335.38
2022-10-31T10:57:44.035Z,94326.84
2022-10-31T10:58:43.528Z,94326.19
2022-10-31T10:59:40.182Z,94327.94
2022-10-31T11:00:41.883Z,94322.69
2022-10-31T11:01:39.930Z,94321.91
2022-10-31T11:02:36.570Z,94320.00
2022-10-31T11:03:36.554Z,94307.69
2022-10-31T11:04:40.773Z,94328.97
2022-10-31T11:05:45.987Z,94323.69
2022-10-31T11:06:42.587Z,94318.28
2022-10-31T11:07:40.970Z,94323.50
2022-10-31T11:08:37.843Z,94280.13
2022-10-31T11:09:35.948Z,94316.06
2022-10-31T11:10:33.248Z,94322.19
2022-10-31T11:11:31.974Z,94289.72
2022-10-31T11:12:35.170Z,94318.25
2022-10-31T11:13:33.884Z,94314.41
2022-10-31T11:14:30.758Z,94310.81
2022-10-31T11:15:29.090Z,94312.03
2022-10-31T11:16:28.836Z,94307.66
2022-10-31T11:17:36.961Z,94308.50
2022-10-31T11:18:37.747Z,94276.84
2022-10-31T11:19:34.358Z,94266.41
2022-10-31T11:20:35.553Z,94279.78
2022-10-31T11:21:34.441Z,94303.34
2022-10-31T11:22:31.298Z,94301.31
2022-10-31T11:23:29.671Z,94297.97
2022-10-31T11:24:28.522Z,94265.63
2022-10-31T11:25:27.170Z,94287.47
2022-10-31T11:26:23.929Z,94294.31
2022-10-31T11:27:26.168Z,94291.38
2022-10-31T11:28:23.200Z,94261.03
2022-10-31T11:29:22.885Z,94291.06
2022-10-31T11:30:19.551Z,94288.44
2022-10-31T11:31:16.931Z,94289.47
2022-10-31T11:32:31.575Z,94286.69
2022-10-31T11:33:34.789Z,94288.38
2022-10-31T11:34:39.091Z,94293.56
2022-10-31T11:35:41.159Z,94281.31
2022-10-31T11:36:40.484Z,94290.63
2022-10-31T11:37:43.742Z,94283.31
2022-10-31T11:38:44.991Z,94267.66
2022-10-31T11:39:44.516Z,94245.91
2022-10-31T11:40:53.381Z,94275.56
2022-10-31T11:41:51.704Z,94277.22
2022-10-31T11:42:49.241Z,94277.03
2022-10-31T11:43:55.418Z,94228.06
2022-10-31T11:44:54.270Z,94277.28
2022-10-31T11:45:51.689Z,94294.31
2022-10-31T11:46:53.750Z,94275.53
2022-10-31T11:47:58.249Z,94269.47
2022-10-31T11:48:57.513Z,94270.13
2022-10-31T11:49:55.693Z,94267.34
2022-10-31T11:50:59.499Z,94258.47
2022-10-31T11:51:59.151Z,94221.66
2022-10-31T11:52:56.553Z,94262.28